Andrea Onorato — IKFT — position and weather

sailwx.info

Track history (hours):
 
Tides and Currents Weather Stations Pressure Air Temp Water Temp Dewpoint Dewpoint Depression Visibility Wind Speed Wind Dir Waves Ship Positions

Andrea Onorato

Last reported at 2018-Jan-23 16:00 UTC. Time now 2018-Jan-23 16:10 UTC.
Position N 39°13' E 009°04'.

Length 32 m; draft 4.7 m.

Type: Tug. MMSI: 247090500.

Date/timePositionNaut miles runAvg speedWind from/ knotsBaromVisibWave heightAir tempDewpointWater temp
2018-Jan-23 16:00N 39°13' E 009°04'0 0.5
2018-Jan-23 15:30N 39°13' E 009°04'2 4.0
2018-Jan-23 15:00N 39°12' E 009°07'0 0.3
2018-Jan-23 14:30N 39°13' E 009°07'0 0.0
2018-Jan-23 14:00N 39°13' E 009°07'0 0.0
2018-Jan-23 13:30N 39°13' E 009°07'0 0.0
2018-Jan-23 13:00N 39°13' E 009°07'0 0.0
2018-Jan-23 12:30N 39°13' E 009°07'0 0.0
2018-Jan-23 11:59N 39°13' E 009°07'0 0.0
2018-Jan-23 11:30N 39°13' E 009°07'0 0.0
2018-Jan-23 11:00N 39°13' E 009°07'0 0.0
2018-Jan-23 10:30N 39°13' E 009°07'0 0.7
2018-Jan-23 10:00N 39°12' E 009°07'2 4.0
2018-Jan-23 09:30N 39°13' E 009°04'1 2.3
2018-Jan-23 09:00N 39°12' E 009°05'1 2.4
2018-Jan-23 08:30N 39°13' E 009°07'0 0.0
2018-Jan-23 07:59N 39°13' E 009°07'0 0.0
2018-Jan-23 07:30N 39°13' E 009°07'1 1.7
2018-Jan-23 07:00N 39°12' E 009°06'2 3.8
2018-Jan-23 06:29N 39°13' E 009°04'1 1.8
2018-Jan-23 05:59N 39°12' E 009°05'1 2.6
2018-Jan-23 05:30N 39°13' E 009°07'0 0.0
2018-Jan-23 04:59N 39°13' E 009°07'0 0.0
2018-Jan-23 04:30N 39°13' E 009°07'0 0.0
2018-Jan-23 04:00N 39°13' E 009°07'0 0.0
2018-Jan-23 03:29N 39°13' E 009°07'0 0.0
2018-Jan-23 03:00N 39°13' E 009°07'0 0.0
2018-Jan-23 02:30N 39°13' E 009°07'0 0.0
2018-Jan-23 02:00N 39°13' E 009°07'0 0.0
2018-Jan-23 01:30N 39°13' E 009°07'0 0.0
2018-Jan-23 01:00N 39°13' E 009°07'0 0.6
2018-Jan-23 00:30N 39°12' E 009°06'1 1.1
2018-Jan-23 00:00N 39°12' E 009°07'1 1.3
2018-Jan-22 23:29N 39°13' E 009°07'0 0.0
2018-Jan-22 22:59N 39°13' E 009°07'0 0.0
2018-Jan-22 22:30N 39°13' E 009°07'0 0.0
2018-Jan-22 22:00N 39°13' E 009°07'0 0.0
2018-Jan-22 21:30N 39°13' E 009°07'0 0.0
2018-Jan-22 21:00N 39°13' E 009°07'0 0.0
2018-Jan-22 20:30N 39°13' E 009°07'0 0.0
2018-Jan-22 19:59N 39°13' E 009°07'0 0.0
2018-Jan-22 19:30N 39°13' E 009°07'0 0.2
2018-Jan-22 18:59N 39°13' E 009°06'0 0.2
2018-Jan-22 18:30N 39°13' E 009°07'0 0.0
2018-Jan-22 17:59N 39°13' E 009°07'0 0.0
2018-Jan-22 17:30N 39°13' E 009°07'0 0.0
2018-Jan-22 16:59N 39°13' E 009°07'0 0.0
2018-Jan-22 16:29N 39°13' E 009°07'0 0.0
2018-Jan-22 15:59N 39°13' E 009°07'0 0.0
2018-Jan-22 15:30N 39°13' E 009°07'0 0.0
2018-Jan-22 14:59N 39°13' E 009°07'0 0.0
2018-Jan-22 14:30N 39°13' E 009°07'0 0.0
2018-Jan-22 13:59N 39°13' E 009°07'0 0.0
2018-Jan-22 13:29N 39°13' E 009°07'0 0.2
2018-Jan-22 13:00N 39°13' E 009°06'1 1.2
2018-Jan-22 12:29N 39°12' E 009°07'1 1.2
2018-Jan-22 11:59N 39°13' E 009°07'0 0.0
2018-Jan-22 11:30N 39°13' E 009°07'0 0.0
2018-Jan-22 10:58N 39°13' E 009°07'0 0.0
2018-Jan-22 10:30N 39°13' E 009°07'0 0.0
2018-Jan-22 10:00N 39°13' E 009°07'0 0.0
2018-Jan-22 09:29N 39°13' E 009°07'0 0.0
2018-Jan-22 09:00N 39°13' E 009°07'0 0.0
2018-Jan-22 08:30N 39°13' E 009°07'0 0.0
2018-Jan-22 08:00N 39°13' E 009°07'0 0.0
2018-Jan-22 07:29N 39°13' E 009°07'0 0.0
2018-Jan-22 07:00N 39°13' E 009°07'0 0.0
2018-Jan-22 06:30N 39°13' E 009°07'0 0.0
2018-Jan-22 05:59N 39°13' E 009°07'0 0.0
2018-Jan-22 05:30N 39°13' E 009°07'0 0.2
2018-Jan-22 05:00N 39°13' E 009°06'1 1.5
2018-Jan-22 04:28N 39°12' E 009°06'1 1.8
2018-Jan-22 04:00N 39°13' E 009°07'0 0.0
2018-Jan-22 03:30N 39°13' E 009°07'0 0.0
2018-Jan-22 03:00N 39°13' E 009°07'0 0.0
2018-Jan-22 02:30N 39°13' E 009°07'0 0.0
2018-Jan-22 01:59N 39°13' E 009°07'0 0.0
2018-Jan-22 01:29N 39°13' E 009°07'0 0.0
2018-Jan-22 01:00N 39°13' E 009°07'0 0.0
2018-Jan-22 00:30N 39°13' E 009°07'0 0.0
2018-Jan-22 00:00N 39°13' E 009°07'0 0.0
2018-Jan-21 23:30N 39°13' E 009°07'0 0.0
2018-Jan-21 23:00N 39°13' E 009°07'1 2.3
2018-Jan-21 22:30N 39°12' E 009°05'1 2.7
2018-Jan-21 22:00N 39°13' E 009°04'2 3.7
2018-Jan-21 21:30N 39°11' E 009°06'1 2.3
2018-Jan-21 21:00N 39°13' E 009°06'1 1.6
2018-Jan-21 20:30N 39°12' E 009°07'1 1.5
2018-Jan-21 19:59N 39°13' E 009°06'1 1.7
2018-Jan-21 19:29N 39°12' E 009°06'1 1.7
2018-Jan-21 19:00N 39°13' E 009°07'0 0.0
2018-Jan-21 18:29N 39°13' E 009°07'0 0.0
2018-Jan-21 18:00N 39°13' E 009°07'0 0.0
2018-Jan-21 17:30N 39°13' E 009°07'0 0.0
2018-Jan-21 16:59N 39°13' E 009°07'0 0.0
2018-Jan-21 16:29N 39°13' E 009°07'0 0.0
2018-Jan-21 16:00N 39°13' E 009°07'0 0.0
2018-Jan-21 15:28N 39°13' E 009°07'0 0.0
2018-Jan-21 15:00N 39°13' E 009°07'0 0.0
2018-Jan-21 14:29N 39°13' E 009°07'0 0.0
2018-Jan-21 14:00N 39°13' E 009°07'0 0.0
2018-Jan-21 13:29N 39°13' E 009°07'0 0.0
2018-Jan-21 13:00N 39°13' E 009°07'0 0.0
2018-Jan-21 12:30N 39°13' E 009°07'0 0.0
2018-Jan-21 12:00N 39°13' E 009°07'0 0.0
2018-Jan-21 11:29N 39°13' E 009°07'0 0.0
2018-Jan-21 11:00N 39°13' E 009°07'0 0.0
2018-Jan-21 10:29N 39°13' E 009°07'0 0.0
2018-Jan-21 09:59N 39°13' E 009°07'0 0.0
2018-Jan-21 09:30N 39°13' E 009°07'0 0.0
2018-Jan-21 09:00N 39°13' E 009°07'0 0.0
2018-Jan-21 08:30N 39°13' E 009°07'0 0.0
2018-Jan-21 07:59N 39°13' E 009°07'2 3.4
2018-Jan-21 07:30N 39°13' E 009°04'2 4.1
2018-Jan-21 07:00N 39°11' E 009°06'1 2.8
2018-Jan-21 06:30N 39°13' E 009°07'0 0.0
2018-Jan-21 06:00N 39°13' E 009°07'0 0.0
2018-Jan-21 05:30N 39°13' E 009°07'0 0.0
2018-Jan-21 05:00N 39°13' E 009°07'0 0.0
2018-Jan-21 04:30N 39°13' E 009°07'0 0.0
2018-Jan-21 03:59N 39°13' E 009°07'0 0.0
2018-Jan-21 03:30N 39°13' E 009°07'0 0.0
2018-Jan-21 03:00N 39°13' E 009°07'0 0.0
2018-Jan-21 02:30N 39°13' E 009°07'0 0.0
2018-Jan-21 02:00N 39°13' E 009°07'0 0.0
2018-Jan-21 01:30N 39°13' E 009°07'0 0.0
2018-Jan-21 00:59N 39°13' E 009°07'0 0.3
2018-Jan-21 00:30N 39°13' E 009°07'1 1.3
2018-Jan-21 00:00N 39°12' E 009°06'1 1.5
2018-Jan-20 23:28N 39°13' E 009°07'0 0.0
2018-Jan-20 23:00N 39°13' E 009°07'0 0.0
2018-Jan-20 22:30N 39°13' E 009°07'0 0.0
2018-Jan-20 22:00N 39°13' E 009°07'0 0.0
2018-Jan-20 21:30N 39°13' E 009°07'0 0.0
2018-Jan-20 21:00N 39°13' E 009°07'0 0.0
2018-Jan-20 20:30N 39°13' E 009°07'0 0.0
2018-Jan-20 19:59N 39°13' E 009°07'0 0.0
2018-Jan-20 19:30N 39°13' E 009°07'0 0.0
2018-Jan-20 19:00N 39°13' E 009°07'0 0.0
2018-Jan-20 18:29N 39°13' E 009°07'0 0.0
2018-Jan-20 18:00N 39°13' E 009°07'2 3.9
2018-Jan-20 17:29N 39°11' E 009°06'612.0
2018-Jan-20 17:00N 39°05' E 009°03'0 0.1
2018-Jan-20 16:29N 39°05' E 009°03'2 3.4
2018-Jan-20 16:00N 39°04' E 009°05'1 2.4
2018-Jan-20 15:29N 39°06' E 009°05'5 9.8
2018-Jan-20 14:58N 39°11' E 009°06'2 4.5
2018-Jan-20 14:30N 39°13' E 009°07'0 0.4
2018-Jan-20 14:00N 39°13' E 009°06'1 1.7
2018-Jan-20 13:30N 39°12' E 009°06'1 1.6
2018-Jan-20 13:00N 39°13' E 009°07'0 0.0
2018-Jan-20 12:29N 39°13' E 009°07'0 0.0
2018-Jan-20 12:00N 39°13' E 009°07'0 0.0
2018-Jan-20 11:30N 39°13' E 009°07'0 0.0
2018-Jan-20 11:00N 39°13' E 009°07'1 1.3
2018-Jan-20 10:30N 39°12' E 009°07'3 5.5
2018-Jan-20 10:00N 39°13' E 009°03'2 4.7
2018-Jan-20 09:29N 39°12' E 009°06'1 2.2
2018-Jan-20 09:00N 39°13' E 009°07'0 0.0
2018-Jan-20 08:29N 39°13' E 009°07'0 0.0
2018-Jan-20 07:58N 39°13' E 009°07'0 0.0
2018-Jan-20 07:29N 39°13' E 009°07'0 0.0
2018-Jan-20 07:00N 39°13' E 009°07'0 0.0
2018-Jan-20 06:29N 39°13' E 009°07'0 0.0
2018-Jan-20 05:59N 39°13' E 009°07'0 0.0
2018-Jan-20 05:30N 39°13' E 009°07'0 0.0
2018-Jan-20 05:00N 39°13' E 009°07'0 0.0
2018-Jan-20 04:30N 39°13' E 009°07'0 0.0
2018-Jan-20 04:00N 39°13' E 009°07'0 0.0
2018-Jan-20 03:29N 39°13' E 009°07'0 0.0
2018-Jan-20 02:59N 39°13' E 009°07'0 0.0
2018-Jan-20 02:30N 39°13' E 009°07'0 0.0
2018-Jan-20 01:59N 39°13' E 009°07'0 0.0
2018-Jan-20 01:30N 39°13' E 009°07'0 0.0
2018-Jan-20 01:00N 39°13' E 009°07'0 0.0
2018-Jan-20 00:30N 39°13' E 009°07'0 0.0
2018-Jan-20 00:00N 39°13' E 009°07'0 0.0
2018-Jan-19 23:30N 39°13' E 009°07'0 0.0
2018-Jan-19 22:59N 39°13' E 009°07'0 0.0
2018-Jan-19 22:30N 39°13' E 009°07'0 0.0
2018-Jan-19 22:00N 39°13' E 009°07'0 0.0
2018-Jan-19 21:29N 39°13' E 009°07'0 0.0
2018-Jan-19 21:00N 39°13' E 009°07'0 0.0
2018-Jan-19 20:30N 39°13' E 009°07'0 0.0
2018-Jan-19 19:59N 39°13' E 009°07'0 0.0
2018-Jan-19 19:30N 39°13' E 009°07'0 0.0
2018-Jan-19 19:00N 39°13' E 009°07'0 0.0
2018-Jan-19 18:30N 39°13' E 009°07'0 0.0
2018-Jan-19 18:00N 39°13' E 009°07'0 0.0
2018-Jan-19 17:29N 39°13' E 009°07'0 0.0
2018-Jan-19 17:00N 39°13' E 009°07'1 2.4
2018-Jan-19 16:29N 39°12' E 009°06'2 3.4
2018-Jan-19 15:59N 39°13' E 009°04'2 4.2
2018-Jan-19 15:30N 39°12' E 009°07'0 0.7
2018-Jan-19 15:00N 39°13' E 009°07'0 0.0
2018-Jan-19 14:30N 39°13' E 009°07'0 0.0
2018-Jan-19 14:00N 39°13' E 009°07'0 0.0
2018-Jan-19 13:30N 39°13' E 009°07'0 0.0
2018-Jan-19 13:00N 39°13' E 009°07'0 0.0
2018-Jan-19 12:30N 39°13' E 009°07'0 0.0
2018-Jan-19 11:59N 39°13' E 009°07'0 0.0
2018-Jan-19 11:30N 39°13' E 009°07'0 0.0
2018-Jan-19 11:00N 39°13' E 009°07'0 0.0
2018-Jan-19 10:30N 39°13' E 009°07'0 0.0
2018-Jan-19 09:59N 39°13' E 009°07'0 0.0
2018-Jan-19 09:30N 39°13' E 009°07'0 0.0
2018-Jan-19 09:00N 39°13' E 009°07'0 0.0
2018-Jan-19 08:30N 39°13' E 009°07'0 0.0
2018-Jan-19 08:01N 39°13' E 009°07'0 0.0
2018-Jan-19 07:30N 39°13' E 009°07'0 0.0
2018-Jan-19 07:00N 39°13' E 009°07'0 0.0
2018-Jan-19 06:30N 39°13' E 009°07'0 0.0
2018-Jan-19 06:00N 39°13' E 009°07'0 0.0
2018-Jan-19 05:29N 39°13' E 009°07'0 0.0
2018-Jan-19 05:00N 39°13' E 009°07'0 0.0
2018-Jan-19 04:29N 39°13' E 009°07'0 0.0
2018-Jan-19 04:00N 39°13' E 009°07'0 0.0
2018-Jan-19 03:30N 39°13' E 009°07'0 0.0
2018-Jan-19 03:00N 39°13' E 009°07'0 0.0
2018-Jan-19 02:30N 39°13' E 009°07'0 0.0
2018-Jan-19 01:59N 39°13' E 009°07'0 0.0
2018-Jan-19 01:30N 39°13' E 009°07'0 0.0
2018-Jan-19 01:00N 39°13' E 009°07'0 0.0
2018-Jan-19 00:30N 39°13' E 009°07'0 0.0
2018-Jan-19 00:00N 39°13' E 009°07'0 0.0
2018-Jan-18 23:30N 39°13' E 009°07'0 0.0
2018-Jan-18 23:00N 39°13' E 009°07'0 0.0
2018-Jan-18 22:29N 39°13' E 009°07'0 0.0
2018-Jan-18 21:59N 39°13' E 009°07'0 0.0
2018-Jan-18 21:30N 39°13' E 009°07'0 0.0
2018-Jan-18 21:00N 39°13' E 009°07'0 0.0
2018-Jan-18 20:30N 39°13' E 009°07'0 0.0
2018-Jan-18 20:00N 39°13' E 009°07'0 0.5
2018-Jan-18 19:30N 39°12' E 009°06'1 1.1
2018-Jan-18 19:00N 39°12' E 009°06'1 1.6
2018-Jan-18 18:30N 39°13' E 009°07'0 0.0
2018-Jan-18 18:00N 39°13' E 009°07'0 0.0
2018-Jan-18 17:30N 39°13' E 009°07'0 0.0
2018-Jan-18 17:01N 39°13' E 009°07'0 0.0
2018-Jan-18 16:30N 39°13' E 009°07'0 0.0
2018-Jan-18 16:00N 39°13' E 009°07'0 0.0
2018-Jan-18 15:30N 39°13' E 009°07'0 0.0
2018-Jan-18 15:00N 39°13' E 009°07'0 0.0
2018-Jan-18 14:30N 39°13' E 009°07'0 0.0
2018-Jan-18 14:00N 39°13' E 009°07'0 0.0
2018-Jan-18 13:30N 39°13' E 009°07'0 0.0
2018-Jan-18 13:00N 39°13' E 009°07'0 0.0
2018-Jan-18 12:29N 39°13' E 009°07'0 0.0
2018-Jan-18 11:59N 39°13' E 009°07'0 0.0
2018-Jan-18 11:30N 39°13' E 009°07'0 0.0
2018-Jan-18 11:00N 39°13' E 009°07'0 0.0
2018-Jan-18 10:30N 39°13' E 009°07'0 0.0
2018-Jan-18 08:44N 39°13' E 009°07'0 0.0
2018-Jan-18 08:30N 39°13' E 009°07'0 0.0
2018-Jan-18 08:00N 39°13' E 009°07'0 0.0
2018-Jan-18 07:30N 39°13' E 009°07'0 0.0
2018-Jan-18 07:00N 39°13' E 009°07'0 0.0
2018-Jan-18 06:30N 39°13' E 009°07'0 0.0
2018-Jan-18 05:59N 39°13' E 009°07'0 0.0
2018-Jan-18 05:30N 39°13' E 009°07'0 0.0
2018-Jan-18 04:58N 39°13' E 009°07'1 1.1
2018-Jan-18 04:30N 39°12' E 009°07'2 4.3
2018-Jan-18 04:00N 39°13' E 009°04'2 3.8
2018-Jan-18 03:29N 39°12' E 009°06'2 3.3
2018-Jan-18 03:00N 39°13' E 009°04'0 0.3
2018-Jan-18 02:30N 39°13' E 009°04'1 1.0
2018-Jan-18 02:00N 39°13' E 009°04'2 4.6
2018-Jan-18 01:30N 39°11' E 009°06'1 1.6
2018-Jan-18 01:00N 39°12' E 009°07'0 0.2
2018-Jan-17 23:59N 39°12' E 009°07'0 5.7
2018-Jan-17 23:57N 39°12' E 009°07'  
Track history (hours):
 
Tides and Currents Weather Stations Pressure Air Temp Water Temp Dewpoint Dewpoint Depression Visibility Wind Speed Wind Dir Waves Ship Positions

Andrea Onorato

Last reported at 2018-Jan-23 16:00 UTC. Time now 2018-Jan-23 16:10 UTC.
Position N 39°13' E 009°04'.

Length 32 m; draft 4.7 m.

Type: Tug. MMSI: 247090500.

Date/timePositionNaut miles runAvg speedWind from/ knotsBaromVisibWave heightAir tempDewpointWater temp
2018-Jan-23 16:00N 39°13' E 009°04'0 0.5
2018-Jan-23 15:30N 39°13' E 009°04'2 4.0
2018-Jan-23 15:00N 39°12' E 009°07'0 0.3
2018-Jan-23 14:30N 39°13' E 009°07'0 0.0
2018-Jan-23 14:00N 39°13' E 009°07'0 0.0
2018-Jan-23 13:30N 39°13' E 009°07'0 0.0
2018-Jan-23 13:00N 39°13' E 009°07'0 0.0
2018-Jan-23 12:30N 39°13' E 009°07'0 0.0
2018-Jan-23 11:59N 39°13' E 009°07'0 0.0
2018-Jan-23 11:30N 39°13' E 009°07'0 0.0
2018-Jan-23 11:00N 39°13' E 009°07'0 0.0
2018-Jan-23 10:30N 39°13' E 009°07'0 0.7
2018-Jan-23 10:00N 39°12' E 009°07'2 4.0
2018-Jan-23 09:30N 39°13' E 009°04'1 2.3
2018-Jan-23 09:00N 39°12' E 009°05'1 2.4
2018-Jan-23 08:30N 39°13' E 009°07'0 0.0
2018-Jan-23 07:59N 39°13' E 009°07'0 0.0
2018-Jan-23 07:30N 39°13' E 009°07'1 1.7
2018-Jan-23 07:00N 39°12' E 009°06'2 3.8
2018-Jan-23 06:29N 39°13' E 009°04'1 1.8
2018-Jan-23 05:59N 39°12' E 009°05'1 2.6
2018-Jan-23 05:30N 39°13' E 009°07'0 0.0
2018-Jan-23 04:59N 39°13' E 009°07'0 0.0
2018-Jan-23 04:30N 39°13' E 009°07'0 0.0
2018-Jan-23 04:00N 39°13' E 009°07'0 0.0
2018-Jan-23 03:29N 39°13' E 009°07'0 0.0
2018-Jan-23 03:00N 39°13' E 009°07'0 0.0
2018-Jan-23 02:30N 39°13' E 009°07'0 0.0
2018-Jan-23 02:00N 39°13' E 009°07'0 0.0
2018-Jan-23 01:30N 39°13' E 009°07'0 0.0
2018-Jan-23 01:00N 39°13' E 009°07'0 0.6
2018-Jan-23 00:30N 39°12' E 009°06'1 1.1
2018-Jan-23 00:00N 39°12' E 009°07'1 1.3
2018-Jan-22 23:29N 39°13' E 009°07'0 0.0
2018-Jan-22 22:59N 39°13' E 009°07'0 0.0
2018-Jan-22 22:30N 39°13' E 009°07'0 0.0
2018-Jan-22 22:00N 39°13' E 009°07'0 0.0
2018-Jan-22 21:30N 39°13' E 009°07'0 0.0
2018-Jan-22 21:00N 39°13' E 009°07'0 0.0
2018-Jan-22 20:30N 39°13' E 009°07'0 0.0
2018-Jan-22 19:59N 39°13' E 009°07'0 0.0
2018-Jan-22 19:30N 39°13' E 009°07'0 0.2
2018-Jan-22 18:59N 39°13' E 009°06'0 0.2
2018-Jan-22 18:30N 39°13' E 009°07'0 0.0
2018-Jan-22 17:59N 39°13' E 009°07'0 0.0
2018-Jan-22 17:30N 39°13' E 009°07'0 0.0
2018-Jan-22 16:59N 39°13' E 009°07'0 0.0
2018-Jan-22 16:29N 39°13' E 009°07'0 0.0
2018-Jan-22 15:59N 39°13' E 009°07'0 0.0
2018-Jan-22 15:30N 39°13' E 009°07'0 0.0
2018-Jan-22 14:59N 39°13' E 009°07'0 0.0
2018-Jan-22 14:30N 39°13' E 009°07'0 0.0
2018-Jan-22 13:59N 39°13' E 009°07'0 0.0
2018-Jan-22 13:29N 39°13' E 009°07'0 0.2
2018-Jan-22 13:00N 39°13' E 009°06'1 1.2
2018-Jan-22 12:29N 39°12' E 009°07'1 1.2
2018-Jan-22 11:59N 39°13' E 009°07'0 0.0
2018-Jan-22 11:30N 39°13' E 009°07'0 0.0
2018-Jan-22 10:58N 39°13' E 009°07'0 0.0
2018-Jan-22 10:30N 39°13' E 009°07'0 0.0
2018-Jan-22 10:00N 39°13' E 009°07'0 0.0
2018-Jan-22 09:29N 39°13' E 009°07'0 0.0
2018-Jan-22 09:00N 39°13' E 009°07'0 0.0
2018-Jan-22 08:30N 39°13' E 009°07'0 0.0
2018-Jan-22 08:00N 39°13' E 009°07'0 0.0
2018-Jan-22 07:29N 39°13' E 009°07'0 0.0
2018-Jan-22 07:00N 39°13' E 009°07'0 0.0
2018-Jan-22 06:30N 39°13' E 009°07'0 0.0
2018-Jan-22 05:59N 39°13' E 009°07'0 0.0
2018-Jan-22 05:30N 39°13' E 009°07'0 0.2
2018-Jan-22 05:00N 39°13' E 009°06'1 1.5
2018-Jan-22 04:28N 39°12' E 009°06'1 1.8
2018-Jan-22 04:00N 39°13' E 009°07'0 0.0
2018-Jan-22 03:30N 39°13' E 009°07'0 0.0
2018-Jan-22 03:00N 39°13' E 009°07'0 0.0
2018-Jan-22 02:30N 39°13' E 009°07'0 0.0
2018-Jan-22 01:59N 39°13' E 009°07'0 0.0
2018-Jan-22 01:29N 39°13' E 009°07'0 0.0
2018-Jan-22 01:00N 39°13' E 009°07'0 0.0
2018-Jan-22 00:30N 39°13' E 009°07'0 0.0
2018-Jan-22 00:00N 39°13' E 009°07'0 0.0
2018-Jan-21 23:30N 39°13' E 009°07'0 0.0
2018-Jan-21 23:00N 39°13' E 009°07'1 2.3
2018-Jan-21 22:30N 39°12' E 009°05'1 2.7
2018-Jan-21 22:00N 39°13' E 009°04'2 3.7
2018-Jan-21 21:30N 39°11' E 009°06'1 2.3
2018-Jan-21 21:00N 39°13' E 009°06'1 1.6
2018-Jan-21 20:30N 39°12' E 009°07'1 1.5
2018-Jan-21 19:59N 39°13' E 009°06'1 1.7
2018-Jan-21 19:29N 39°12' E 009°06'1 1.7
2018-Jan-21 19:00N 39°13' E 009°07'0 0.0
2018-Jan-21 18:29N 39°13' E 009°07'0 0.0
2018-Jan-21 18:00N 39°13' E 009°07'0 0.0
2018-Jan-21 17:30N 39°13' E 009°07'0 0.0
2018-Jan-21 16:59N 39°13' E 009°07'0 0.0
2018-Jan-21 16:29N 39°13' E 009°07'0 0.0
2018-Jan-21 16:00N 39°13' E 009°07'0 0.0
2018-Jan-21 15:28N 39°13' E 009°07'0 0.0
2018-Jan-21 15:00N 39°13' E 009°07'0 0.0
2018-Jan-21 14:29N 39°13' E 009°07'0 0.0
2018-Jan-21 14:00N 39°13' E 009°07'0 0.0
2018-Jan-21 13:29N 39°13' E 009°07'0 0.0
2018-Jan-21 13:00N 39°13' E 009°07'0 0.0
2018-Jan-21 12:30N 39°13' E 009°07'0 0.0
2018-Jan-21 12:00N 39°13' E 009°07'0 0.0
2018-Jan-21 11:29N 39°13' E 009°07'0 0.0
2018-Jan-21 11:00N 39°13' E 009°07'0 0.0
2018-Jan-21 10:29N 39°13' E 009°07'0 0.0
2018-Jan-21 09:59N 39°13' E 009°07'0 0.0
2018-Jan-21 09:30N 39°13' E 009°07'0 0.0
2018-Jan-21 09:00N 39°13' E 009°07'0 0.0
2018-Jan-21 08:30N 39°13' E 009°07'0 0.0
2018-Jan-21 07:59N 39°13' E 009°07'2 3.4
2018-Jan-21 07:30N 39°13' E 009°04'2 4.1
2018-Jan-21 07:00N 39°11' E 009°06'1 2.8
2018-Jan-21 06:30N 39°13' E 009°07'0 0.0
2018-Jan-21 06:00N 39°13' E 009°07'0 0.0
2018-Jan-21 05:30N 39°13' E 009°07'0 0.0
2018-Jan-21 05:00N 39°13' E 009°07'0 0.0
2018-Jan-21 04:30N 39°13' E 009°07'0 0.0
2018-Jan-21 03:59N 39°13' E 009°07'0 0.0
2018-Jan-21 03:30N 39°13' E 009°07'0 0.0
2018-Jan-21 03:00N 39°13' E 009°07'0 0.0
2018-Jan-21 02:30N 39°13' E 009°07'0 0.0
2018-Jan-21 02:00N 39°13' E 009°07'0 0.0
2018-Jan-21 01:30N 39°13' E 009°07'0 0.0
2018-Jan-21 00:59N 39°13' E 009°07'0 0.3
2018-Jan-21 00:30N 39°13' E 009°07'1 1.3
2018-Jan-21 00:00N 39°12' E 009°06'1 1.5
2018-Jan-20 23:28N 39°13' E 009°07'0 0.0
2018-Jan-20 23:00N 39°13' E 009°07'0 0.0
2018-Jan-20 22:30N 39°13' E 009°07'0 0.0
2018-Jan-20 22:00N 39°13' E 009°07'0 0.0
2018-Jan-20 21:30N 39°13' E 009°07'0 0.0
2018-Jan-20 21:00N 39°13' E 009°07'0 0.0
2018-Jan-20 20:30N 39°13' E 009°07'0 0.0
2018-Jan-20 19:59N 39°13' E 009°07'0 0.0
2018-Jan-20 19:30N 39°13' E 009°07'0 0.0
2018-Jan-20 19:00N 39°13' E 009°07'0 0.0
2018-Jan-20 18:29N 39°13' E 009°07'0 0.0
2018-Jan-20 18:00N 39°13' E 009°07'2 3.9
2018-Jan-20 17:29N 39°11' E 009°06'612.0
2018-Jan-20 17:00N 39°05' E 009°03'0 0.1
2018-Jan-20 16:29N 39°05' E 009°03'2 3.4
2018-Jan-20 16:00N 39°04' E 009°05'1 2.4
2018-Jan-20 15:29N 39°06' E 009°05'5 9.8
2018-Jan-20 14:58N 39°11' E 009°06'2 4.5
2018-Jan-20 14:30N 39°13' E 009°07'0 0.4
2018-Jan-20 14:00N 39°13' E 009°06'1 1.7
2018-Jan-20 13:30N 39°12' E 009°06'1 1.6
2018-Jan-20 13:00N 39°13' E 009°07'0 0.0
2018-Jan-20 12:29N 39°13' E 009°07'0 0.0
2018-Jan-20 12:00N 39°13' E 009°07'0 0.0
2018-Jan-20 11:30N 39°13' E 009°07'0 0.0
2018-Jan-20 11:00N 39°13' E 009°07'1 1.3
2018-Jan-20 10:30N 39°12' E 009°07'3 5.5
2018-Jan-20 10:00N 39°13' E 009°03'2 4.7
2018-Jan-20 09:29N 39°12' E 009°06'1 2.2
2018-Jan-20 09:00N 39°13' E 009°07'0 0.0
2018-Jan-20 08:29N 39°13' E 009°07'0 0.0
2018-Jan-20 07:58N 39°13' E 009°07'0 0.0
2018-Jan-20 07:29N 39°13' E 009°07'0 0.0
2018-Jan-20 07:00N 39°13' E 009°07'0 0.0
2018-Jan-20 06:29N 39°13' E 009°07'0 0.0
2018-Jan-20 05:59N 39°13' E 009°07'0 0.0
2018-Jan-20 05:30N 39°13' E 009°07'0 0.0
2018-Jan-20 05:00N 39°13' E 009°07'0 0.0
2018-Jan-20 04:30N 39°13' E 009°07'0 0.0
2018-Jan-20 04:00N 39°13' E 009°07'0 0.0
2018-Jan-20 03:29N 39°13' E 009°07'0 0.0
2018-Jan-20 02:59N 39°13' E 009°07'0 0.0
2018-Jan-20 02:30N 39°13' E 009°07'0 0.0
2018-Jan-20 01:59N 39°13' E 009°07'0 0.0
2018-Jan-20 01:30N 39°13' E 009°07'0 0.0
2018-Jan-20 01:00N 39°13' E 009°07'0 0.0
2018-Jan-20 00:30N 39°13' E 009°07'0 0.0
2018-Jan-20 00:00N 39°13' E 009°07'0 0.0
2018-Jan-19 23:30N 39°13' E 009°07'0 0.0
2018-Jan-19 22:59N 39°13' E 009°07'0 0.0
2018-Jan-19 22:30N 39°13' E 009°07'0 0.0
2018-Jan-19 22:00N 39°13' E 009°07'0 0.0
2018-Jan-19 21:29N 39°13' E 009°07'0 0.0
2018-Jan-19 21:00N 39°13' E 009°07'0 0.0
2018-Jan-19 20:30N 39°13' E 009°07'0 0.0
2018-Jan-19 19:59N 39°13' E 009°07'0 0.0
2018-Jan-19 19:30N 39°13' E 009°07'0 0.0
2018-Jan-19 19:00N 39°13' E 009°07'0 0.0
2018-Jan-19 18:30N 39°13' E 009°07'0 0.0
2018-Jan-19 18:00N 39°13' E 009°07'0 0.0
2018-Jan-19 17:29N 39°13' E 009°07'0 0.0
2018-Jan-19 17:00N 39°13' E 009°07'1 2.4
2018-Jan-19 16:29N 39°12' E 009°06'2 3.4
2018-Jan-19 15:59N 39°13' E 009°04'2 4.2
2018-Jan-19 15:30N 39°12' E 009°07'0 0.7
2018-Jan-19 15:00N 39°13' E 009°07'0 0.0
2018-Jan-19 14:30N 39°13' E 009°07'0 0.0
2018-Jan-19 14:00N 39°13' E 009°07'0 0.0
2018-Jan-19 13:30N 39°13' E 009°07'0 0.0
2018-Jan-19 13:00N 39°13' E 009°07'0 0.0
2018-Jan-19 12:30N 39°13' E 009°07'0 0.0
2018-Jan-19 11:59N 39°13' E 009°07'0 0.0
2018-Jan-19 11:30N 39°13' E 009°07'0 0.0
2018-Jan-19 11:00N 39°13' E 009°07'0 0.0
2018-Jan-19 10:30N 39°13' E 009°07'0 0.0
2018-Jan-19 09:59N 39°13' E 009°07'0 0.0
2018-Jan-19 09:30N 39°13' E 009°07'0 0.0
2018-Jan-19 09:00N 39°13' E 009°07'0 0.0
2018-Jan-19 08:30N 39°13' E 009°07'0 0.0
2018-Jan-19 08:01N 39°13' E 009°07'0 0.0
2018-Jan-19 07:30N 39°13' E 009°07'0 0.0
2018-Jan-19 07:00N 39°13' E 009°07'0 0.0
2018-Jan-19 06:30N 39°13' E 009°07'0 0.0
2018-Jan-19 06:00N 39°13' E 009°07'0 0.0
2018-Jan-19 05:29N 39°13' E 009°07'0 0.0
2018-Jan-19 05:00N 39°13' E 009°07'0 0.0
2018-Jan-19 04:29N 39°13' E 009°07'0 0.0
2018-Jan-19 04:00N 39°13' E 009°07'0 0.0
2018-Jan-19 03:30N 39°13' E 009°07'0 0.0
2018-Jan-19 03:00N 39°13' E 009°07'0 0.0
2018-Jan-19 02:30N 39°13' E 009°07'0 0.0
2018-Jan-19 01:59N 39°13' E 009°07'0 0.0
2018-Jan-19 01:30N 39°13' E 009°07'0 0.0
2018-Jan-19 01:00N 39°13' E 009°07'0 0.0
2018-Jan-19 00:30N 39°13' E 009°07'0 0.0
2018-Jan-19 00:00N 39°13' E 009°07'0 0.0
2018-Jan-18 23:30N 39°13' E 009°07'0 0.0
2018-Jan-18 23:00N 39°13' E 009°07'0 0.0
2018-Jan-18 22:29N 39°13' E 009°07'0 0.0
2018-Jan-18 21:59N 39°13' E 009°07'0 0.0
2018-Jan-18 21:30N 39°13' E 009°07'0 0.0
2018-Jan-18 21:00N 39°13' E 009°07'0 0.0
2018-Jan-18 20:30N 39°13' E 009°07'0 0.0
2018-Jan-18 20:00N 39°13' E 009°07'0 0.5
2018-Jan-18 19:30N 39°12' E 009°06'1 1.1
2018-Jan-18 19:00N 39°12' E 009°06'1 1.6
2018-Jan-18 18:30N 39°13' E 009°07'0 0.0
2018-Jan-18 18:00N 39°13' E 009°07'0 0.0
2018-Jan-18 17:30N 39°13' E 009°07'0 0.0
2018-Jan-18 17:01N 39°13' E 009°07'0 0.0
2018-Jan-18 16:30N 39°13' E 009°07'0 0.0
2018-Jan-18 16:00N 39°13' E 009°07'0 0.0
2018-Jan-18 15:30N 39°13' E 009°07'0 0.0
2018-Jan-18 15:00N 39°13' E 009°07'0 0.0
2018-Jan-18 14:30N 39°13' E 009°07'0 0.0
2018-Jan-18 14:00N 39°13' E 009°07'0 0.0
2018-Jan-18 13:30N 39°13' E 009°07'0 0.0
2018-Jan-18 13:00N 39°13' E 009°07'0 0.0
2018-Jan-18 12:29N 39°13' E 009°07'0 0.0
2018-Jan-18 11:59N 39°13' E 009°07'0 0.0
2018-Jan-18 11:30N 39°13' E 009°07'0 0.0
2018-Jan-18 11:00N 39°13' E 009°07'0 0.0
2018-Jan-18 10:30N 39°13' E 009°07'0 0.0
2018-Jan-18 08:44N 39°13' E 009°07'0 0.0
2018-Jan-18 08:30N 39°13' E 009°07'0 0.0
2018-Jan-18 08:00N 39°13' E 009°07'0 0.0
2018-Jan-18 07:30N 39°13' E 009°07'0 0.0
2018-Jan-18 07:00N 39°13' E 009°07'0 0.0
2018-Jan-18 06:30N 39°13' E 009°07'0 0.0
2018-Jan-18 05:59N 39°13' E 009°07'0 0.0
2018-Jan-18 05:30N 39°13' E 009°07'0 0.0
2018-Jan-18 04:58N 39°13' E 009°07'1 1.1
2018-Jan-18 04:30N 39°12' E 009°07'2 4.3
2018-Jan-18 04:00N 39°13' E 009°04'2 3.8
2018-Jan-18 03:29N 39°12' E 009°06'2 3.3
2018-Jan-18 03:00N 39°13' E 009°04'0 0.3
2018-Jan-18 02:30N 39°13' E 009°04'1 1.0
2018-Jan-18 02:00N 39°13' E 009°04'2 4.6
2018-Jan-18 01:30N 39°11' E 009°06'1 1.6
2018-Jan-18 01:00N 39°12' E 009°07'0 0.2
2018-Jan-17 23:59N 39°12' E 009°07'0 5.7
2018-Jan-17 23:57N 39°12' E 009°07'  

Dump ship's entire track history